createdAt,value
2019-05-19T00:02:08.014Z,17.47
2019-05-19T00:04:38.662Z,17.44
2019-05-19T00:07:09.261Z,17.35
2019-05-19T00:09:40.108Z,17.37
2019-05-19T00:12:11.039Z,17.33
2019-05-19T00:14:44.334Z,17.34
2019-05-19T00:17:15.477Z,17.31
2019-05-19T00:19:46.427Z,17.17
2019-05-19T00:22:19.603Z,17.16
2019-05-19T00:24:52.282Z,17.12
2019-05-19T00:27:22.812Z,17.12
2019-05-19T00:29:53.648Z,17.05
2019-05-19T00:32:26.941Z,17.08
2019-05-19T00:34:58.085Z,17.08
2019-05-19T00:37:28.917Z,17.13
2019-05-19T00:40:00.160Z,17.08
2019-05-19T00:42:31.098Z,16.95
2019-05-19T00:45:02.035Z,16.90
2019-05-19T00:47:33.489Z,16.90
2019-05-19T00:50:07.806Z,16.87
2019-05-19T00:52:39.878Z,16.90
2019-05-19T00:55:10.630Z,16.80
2019-05-19T00:57:42.151Z,16.76
2019-05-19T01:00:13.720Z,16.73
2019-05-19T01:02:47.508Z,16.71
2019-05-19T01:05:20.744Z,16.80
2019-05-19T01:07:50.504Z,16.75
2019-05-19T01:10:21.749Z,16.78
2019-05-19T01:12:52.381Z,16.72
2019-05-19T01:15:23.328Z,16.66
2019-05-19T01:17:54.351Z,16.64
2019-05-19T01:20:25.523Z,16.63
2019-05-19T01:22:56.839Z,16.67
2019-05-19T01:25:27.898Z,16.65
2019-05-19T01:27:59.263Z,16.66
2019-05-19T01:30:30.581Z,16.64
2019-05-19T01:33:02.027Z,16.68
2019-05-19T01:35:33.989Z,16.69
2019-05-19T01:38:05.237Z,16.65
2019-05-19T01:40:36.168Z,16.68
2019-05-19T01:43:07.211Z,16.68
2019-05-19T01:45:40.501Z,16.62
2019-05-19T01:48:14.001Z,16.56
2019-05-19T01:50:44.668Z,16.51
2019-05-19T01:53:17.739Z,16.57
2019-05-19T01:55:48.551Z,16.63
2019-05-19T01:58:19.798Z,16.63
2019-05-19T02:00:50.651Z,16.62
2019-05-19T02:03:21.387Z,16.51
2019-05-19T02:05:52.304Z,16.51
2019-05-19T02:08:22.850Z,16.46
2019-05-19T02:10:53.668Z,16.47
2019-05-19T02:13:24.408Z,16.46
2019-05-19T02:15:55.053Z,16.52
2019-05-19T02:18:25.927Z,16.62
2019-05-19T02:20:57.001Z,16.67
2019-05-19T02:23:28.387Z,16.66
2019-05-19T02:25:59.184Z,16.55
2019-05-19T02:28:29.811Z,16.46
2019-05-19T02:31:01.696Z,16.50
2019-05-19T02:33:35.629Z,16.59
2019-05-19T02:36:06.110Z,16.60
2019-05-19T02:38:36.843Z,16.66
2019-05-19T02:41:12.792Z,16.55
2019-05-19T02:43:43.795Z,16.49
2019-05-19T02:46:15.180Z,16.59
2019-05-19T02:48:48.749Z,16.71
2019-05-19T02:51:21.831Z,16.65
2019-05-19T02:53:53.534Z,16.68
2019-05-19T02:56:27.461Z,16.72
2019-05-19T02:58:58.836Z,16.82
2019-05-19T03:01:29.612Z,16.84
2019-05-19T03:04:00.866Z,16.77
2019-05-19T03:06:31.802Z,16.89
2019-05-19T03:09:04.683Z,16.82
2019-05-19T03:11:35.411Z,16.91
2019-05-19T03:14:06.390Z,17.00
2019-05-19T03:16:37.589Z,17.09
2019-05-19T03:19:11.088Z,17.06
2019-05-19T03:21:42.746Z,17.06
2019-05-19T03:24:13.306Z,17.06
2019-05-19T03:26:45.952Z,16.93
2019-05-19T03:29:18.526Z,17.13
2019-05-19T03:31:50.966Z,17.05
2019-05-19T03:34:22.850Z,17.00
2019-05-19T03:36:53.437Z,17.10
2019-05-19T03:39:25.756Z,17.19
2019-05-19T03:41:56.677Z,17.23
2019-05-19T03:44:27.973Z,17.16
2019-05-19T03:46:58.771Z,17.20
2019-05-19T03:49:29.604Z,17.27
2019-05-19T03:52:01.354Z,17.33
2019-05-19T03:54:32.504Z,17.32
2019-05-19T03:57:03.651Z,17.38
2019-05-19T03:59:34.586Z,17.41
2019-05-19T04:02:05.144Z,17.44
2019-05-19T04:04:36.465Z,17.53
2019-05-19T04:07:07.402Z,17.51
2019-05-19T04:09:39.257Z,17.57
2019-05-19T04:12:09.991Z,17.62
2019-05-19T04:14:42.131Z,17.59
2019-05-19T04:17:12.987Z,17.71
2019-05-19T04:19:45.577Z,17.81
2019-05-19T04:22:16.402Z,17.93
2019-05-19T04:24:47.570Z,18.03
2019-05-19T04:27:21.331Z,18.00
2019-05-19T04:29:51.979Z,18.09
2019-05-19T04:32:22.878Z,18.15
2019-05-19T04:34:54.561Z,18.15
2019-05-19T04:37:26.614Z,18.20
2019-05-19T04:39:57.156Z,18.28
2019-05-19T04:42:28.015Z,18.31
2019-05-19T04:44:58.827Z,18.44
2019-05-19T04:47:29.867Z,18.57
2019-05-19T04:50:00.354Z,18.74
2019-05-19T04:52:31.431Z,18.88
2019-05-19T04:55:02.477Z,19.03
2019-05-19T04:57:33.314Z,19.15
2019-05-19T05:00:08.857Z,19.31
2019-05-19T05:02:39.362Z,19.35
2019-05-19T05:05:10.733Z,19.54
2019-05-19T05:07:41.663Z,19.55
2019-05-19T05:10:15.064Z,19.66
2019-05-19T05:12:45.995Z,19.63
2019-05-19T05:15:16.985Z,19.61
2019-05-19T05:17:47.481Z,19.79
2019-05-19T05:20:18.646Z,19.89
2019-05-19T05:22:49.442Z,19.99
2019-05-19T05:25:20.684Z,20.12
2019-05-19T05:27:51.747Z,20.20
2019-05-19T05:30:22.866Z,20.26
2019-05-19T05:32:53.704Z,20.39
2019-05-19T05:35:25.107Z,20.29
2019-05-19T05:37:55.933Z,20.53
2019-05-19T05:40:28.163Z,20.66
2019-05-19T05:43:00.228Z,20.79
2019-05-19T05:45:32.077Z,20.84
2019-05-19T05:48:03.519Z,20.92
2019-05-19T05:50:34.179Z,20.97
2019-05-19T05:53:05.114Z,20.95
2019-05-19T05:55:36.029Z,21.12
2019-05-19T05:58:07.273Z,21.23
2019-05-19T06:00:38.018Z,21.42
2019-05-19T06:03:09.042Z,21.60
2019-05-19T06:05:39.788Z,21.81
2019-05-19T06:08:12.657Z,21.78
2019-05-19T06:10:43.601Z,21.87
2019-05-19T06:13:16.579Z,21.93
2019-05-19T06:15:49.346Z,21.97
2019-05-19T06:18:20.398Z,22.06
2019-05-19T06:20:51.196Z,22.12
2019-05-19T06:23:22.191Z,22.31
2019-05-19T06:25:53.149Z,22.64
2019-05-19T06:28:23.948Z,22.89
2019-05-19T06:30:55.189Z,22.91
2019-05-19T06:33:27.055Z,22.97
2019-05-19T06:35:57.905Z,23.24
2019-05-19T06:38:29.033Z,23.32
2019-05-19T06:40:59.873Z,23.44
2019-05-19T06:43:31.123Z,23.39
2019-05-19T06:46:02.150Z,23.54
2019-05-19T06:48:33.148Z,23.65
2019-05-19T06:51:04.252Z,23.63
2019-05-19T06:53:35.990Z,23.62
2019-05-19T06:56:08.588Z,23.54
2019-05-19T06:58:39.296Z,23.50
2019-05-19T07:01:10.336Z,23.49
2019-05-19T07:03:41.123Z,23.62
2019-05-19T07:06:13.332Z,23.91
2019-05-19T07:08:44.581Z,23.91
2019-05-19T07:11:15.414Z,23.98
2019-05-19T07:13:46.349Z,24.23
2019-05-19T07:16:17.590Z,24.31
2019-05-19T07:18:48.531Z,24.45
2019-05-19T07:21:19.407Z,24.60
2019-05-19T07:23:51.021Z,24.58
2019-05-19T07:26:21.864Z,24.47
2019-05-19T07:28:52.891Z,24.71
2019-05-19T07:31:23.529Z,24.84
2019-05-19T07:33:55.181Z,24.94
2019-05-19T07:36:25.810Z,24.83
2019-05-19T07:38:58.280Z,24.66
2019-05-19T07:41:29.014Z,24.91
2019-05-19T07:44:01.745Z,25.23
2019-05-19T07:46:33.043Z,24.89
2019-05-19T07:49:04.431Z,24.88
2019-05-19T07:51:35.527Z,25.03
2019-05-19T07:54:06.570Z,25.13
2019-05-19T07:56:37.605Z,25.16
2019-05-19T07:59:08.234Z,24.99
2019-05-19T08:01:39.792Z,25.23
2019-05-19T08:04:10.362Z,25.31
2019-05-19T08:06:41.873Z,25.50
2019-05-19T08:09:12.650Z,25.61
2019-05-19T08:11:44.574Z,25.93
2019-05-19T08:14:15.001Z,26.12
2019-05-19T08:16:45.828Z,25.94
2019-05-19T08:19:16.691Z,25.85
2019-05-19T08:21:47.511Z,26.12
2019-05-19T08:24:20.687Z,26.09
2019-05-19T08:26:51.522Z,26.32
2019-05-19T08:29:22.254Z,26.53
2019-05-19T08:31:53.218Z,26.77
2019-05-19T08:34:23.906Z,26.67
2019-05-19T08:36:54.927Z,26.68
2019-05-19T08:39:26.966Z,27.20
2019-05-19T08:41:57.533Z,27.42
2019-05-19T08:44:28.495Z,27.38
2019-05-19T08:46:59.220Z,27.69
2019-05-19T08:49:31.839Z,27.70
2019-05-19T08:52:02.531Z,28.00
2019-05-19T08:54:35.108Z,28.06
2019-05-19T08:57:05.940Z,28.09
2019-05-19T08:59:36.775Z,28.68
2019-05-19T09:02:07.645Z,28.81
2019-05-19T09:04:39.168Z,28.79
2019-05-19T09:07:09.999Z,28.85
2019-05-19T09:09:40.748Z,28.53
2019-05-19T09:12:11.568Z,29.05
2019-05-19T09:14:42.503Z,29.42
2019-05-19T09:17:13.454Z,29.56
2019-05-19T09:19:44.792Z,30.05
2019-05-19T09:22:15.525Z,29.89
2019-05-19T09:24:46.445Z,29.95
2019-05-19T09:27:17.404Z,29.98
2019-05-19T09:29:48.028Z,29.78
2019-05-19T09:32:19.065Z,29.69
2019-05-19T09:34:50.105Z,30.26
2019-05-19T09:37:24.627Z,30.28
2019-05-19T09:39:55.302Z,30.62
2019-05-19T09:42:25.974Z,30.52
2019-05-19T09:44:56.820Z,31.20
2019-05-19T09:47:27.559Z,31.20
2019-05-19T09:49:58.496Z,31.44
2019-05-19T09:52:29.226Z,31.63
2019-05-19T09:55:00.883Z,31.47
2019-05-19T09:57:32.625Z,31.79
2019-05-19T10:00:04.406Z,32.06
2019-05-19T10:02:35.951Z,32.19
2019-05-19T10:05:09.131Z,32.14
2019-05-19T10:07:39.873Z,32.14
2019-05-19T10:10:14.100Z,32.20
2019-05-19T10:12:44.506Z,32.56
2019-05-19T10:15:15.566Z,32.82
2019-05-19T10:17:46.578Z,32.82
2019-05-19T10:20:18.794Z,33.17
2019-05-19T10:22:49.074Z,33.28
2019-05-19T10:25:22.651Z,33.51
2019-05-19T10:27:52.395Z,33.76
2019-05-19T10:30:24.228Z,33.28
2019-05-19T10:32:54.771Z,33.44
2019-05-19T10:35:25.915Z,33.82
2019-05-19T10:37:56.741Z,33.87
2019-05-19T10:40:27.799Z,34.12
2019-05-19T10:42:59.955Z,34.29
2019-05-19T10:45:31.302Z,34.23
2019-05-19T10:48:02.198Z,34.47
2019-05-19T10:50:32.992Z,34.36
2019-05-19T10:53:04.010Z,34.71
2019-05-19T10:55:36.780Z,34.82
2019-05-19T10:58:06.709Z,34.84
2019-05-19T11:00:37.550Z,35.52
2019-05-19T11:03:09.889Z,35.20
2019-05-19T11:05:40.471Z,35.04
2019-05-19T11:08:13.123Z,36.13
2019-05-19T11:10:44.061Z,36.13
2019-05-19T11:13:14.892Z,36.11
2019-05-19T11:15:46.552Z,35.82
2019-05-19T11:18:16.974Z,36.16
2019-05-19T11:20:48.011Z,36.69
2019-05-19T11:23:18.763Z,36.61
2019-05-19T11:25:51.790Z,36.49
2019-05-19T11:28:23.485Z,36.98
2019-05-19T11:30:54.629Z,37.01
2019-05-19T11:33:25.363Z,37.17
2019-05-19T11:35:56.290Z,37.45
2019-05-19T11:38:29.526Z,37.86
2019-05-19T11:41:00.525Z,38.19
2019-05-19T11:43:31.266Z,38.07
2019-05-19T11:46:02.095Z,38.14
2019-05-19T11:48:33.038Z,37.82
2019-05-19T11:51:03.764Z,37.84
2019-05-19T11:53:34.655Z,38.25
2019-05-19T11:56:07.311Z,38.00
2019-05-19T11:58:37.804Z,38.88
2019-05-19T12:01:08.539Z,38.34
2019-05-19T12:03:39.479Z,38.84
2019-05-19T12:06:10.083Z,38.46
2019-05-19T12:08:40.878Z,38.69
2019-05-19T12:11:13.209Z,39.06
2019-05-19T12:13:44.068Z,38.64
2019-05-19T12:16:15.081Z,38.78
2019-05-19T12:18:45.851Z,39.37
2019-05-19T12:21:16.865Z,39.60
2019-05-19T12:23:47.689Z,39.18
2019-05-19T12:26:23.067Z,39.70
2019-05-19T12:28:50.693Z,38.85
2019-05-19T12:31:21.543Z,38.99
2019-05-19T12:33:52.583Z,38.90
2019-05-19T12:36:23.517Z,38.53
2019-05-19T12:38:55.474Z,38.38
2019-05-19T12:41:26.813Z,39.22
2019-05-19T12:43:57.554Z,39.53
2019-05-19T12:46:28.395Z,39.69
2019-05-19T12:48:59.110Z,39.75
2019-05-19T12:51:29.770Z,39.29
2019-05-19T12:54:00.845Z,40.03
2019-05-19T12:56:39.652Z,40.12
2019-05-19T12:59:03.987Z,39.73
2019-05-19T13:01:34.728Z,40.06
2019-05-19T13:04:05.557Z,40.26
2019-05-19T13:06:36.606Z,39.60
2019-05-19T13:09:07.637Z,40.03
2019-05-19T13:11:38.371Z,39.92
2019-05-19T13:14:09.207Z,39.92
2019-05-19T13:16:40.173Z,39.97
2019-05-19T13:19:11.181Z,39.49
2019-05-19T13:21:42.120Z,40.23
2019-05-19T13:24:14.999Z,39.94
2019-05-19T13:26:55.947Z,39.94
2019-05-19T13:29:17.184Z,40.10
2019-05-19T13:31:48.224Z,40.30
2019-05-19T13:34:19.388Z,40.11
2019-05-19T13:36:50.511Z,39.81
2019-05-19T13:39:21.242Z,39.69
2019-05-19T13:41:51.741Z,39.45
2019-05-19T13:44:22.500Z,39.49
2019-05-19T13:46:53.408Z,38.69
2019-05-19T13:49:25.440Z,39.16
2019-05-19T13:51:57.875Z,39.02
2019-05-19T13:54:28.510Z,39.54
2019-05-19T13:57:11.381Z,39.29
2019-05-19T13:59:32.224Z,39.42
2019-05-19T14:02:03.260Z,39.30
2019-05-19T14:04:35.455Z,38.72
2019-05-19T14:07:06.423Z,38.51
2019-05-19T14:09:37.407Z,38.16
2019-05-19T14:12:08.243Z,37.83
2019-05-19T14:14:39.077Z,38.29
2019-05-19T14:17:10.017Z,37.88
2019-05-19T14:19:40.849Z,37.88
2019-05-19T14:22:11.584Z,38.02
2019-05-19T14:24:42.622Z,37.49
2019-05-19T14:27:28.451Z,37.07
2019-05-19T14:29:47.366Z,37.06
2019-05-19T14:32:18.015Z,37.29
2019-05-19T14:34:48.833Z,36.95
2019-05-19T14:37:19.768Z,36.89
2019-05-19T14:39:50.825Z,36.76
2019-05-19T14:42:39.558Z,36.42
2019-05-19T14:45:12.344Z,36.40
2019-05-19T14:47:43.036Z,35.99
2019-05-19T14:50:14.231Z,36.21
2019-05-19T14:52:45.057Z,36.24
2019-05-19T14:55:15.886Z,36.41
2019-05-19T14:57:46.691Z,36.11
2019-05-19T15:00:18.278Z,35.85
2019-05-19T15:02:49.313Z,35.70
2019-05-19T15:05:20.045Z,35.96
2019-05-19T15:07:50.884Z,35.40
2019-05-19T15:10:23.155Z,35.94
2019-05-19T15:12:56.958Z,35.92
2019-05-19T15:15:27.693Z,35.82
2019-05-19T15:17:58.445Z,35.90
2019-05-19T15:20:29.463Z,35.42
2019-05-19T15:23:01.115Z,35.18
2019-05-19T15:25:32.154Z,35.29
2019-05-19T15:28:05.397Z,35.32
2019-05-19T15:30:35.808Z,35.35
2019-05-19T15:33:07.631Z,35.57
2019-05-19T15:35:38.981Z,35.07
2019-05-19T15:38:10.739Z,34.82
2019-05-19T15:40:41.976Z,34.91
2019-05-19T15:43:13.015Z,34.51
2019-05-19T15:45:43.851Z,34.18
2019-05-19T15:48:14.924Z,34.11
2019-05-19T15:50:47.582Z,33.86
2019-05-19T15:53:18.407Z,33.86
2019-05-19T15:55:49.572Z,33.77
2019-05-19T15:58:20.307Z,33.71
2019-05-19T16:00:51.731Z,33.58
2019-05-19T16:03:23.491Z,33.29
2019-05-19T16:05:54.459Z,32.87
2019-05-19T16:08:26.998Z,32.58
2019-05-19T16:10:57.733Z,32.19
2019-05-19T16:13:28.362Z,32.09
2019-05-19T16:15:59.406Z,32.01
2019-05-19T16:18:30.871Z,31.69
2019-05-19T16:21:01.791Z,31.45
2019-05-19T16:23:32.653Z,30.96
2019-05-19T16:26:03.766Z,30.68
2019-05-19T16:28:35.421Z,30.53
2019-05-19T16:31:06.289Z,30.64
2019-05-19T16:33:37.501Z,30.45
2019-05-19T16:36:08.669Z,30.17
2019-05-19T16:38:39.580Z,30.06
2019-05-19T16:41:10.483Z,29.71
2019-05-19T16:43:41.553Z,29.65
2019-05-19T16:46:12.166Z,29.35
2019-05-19T16:48:43.147Z,29.01
2019-05-19T16:51:14.578Z,28.67
2019-05-19T16:53:47.219Z,28.15
2019-05-19T16:56:18.001Z,28.05
2019-05-19T16:58:49.022Z,27.78
2019-05-19T17:01:21.293Z,27.42
2019-05-19T17:03:51.982Z,26.95
2019-05-19T17:06:22.862Z,26.62
2019-05-19T17:08:55.342Z,26.35
2019-05-19T17:11:26.183Z,26.15
2019-05-19T17:13:56.798Z,25.92
2019-05-19T17:16:27.581Z,25.66
2019-05-19T17:19:00.501Z,25.56
2019-05-19T17:21:31.469Z,25.43
2019-05-19T17:24:02.732Z,25.38
2019-05-19T17:26:33.536Z,25.23
2019-05-19T17:29:04.471Z,25.12
2019-05-19T17:31:35.411Z,25.07
2019-05-19T17:34:06.465Z,25.02
2019-05-19T17:36:37.913Z,24.90
2019-05-19T17:39:08.833Z,24.76
2019-05-19T17:41:39.623Z,24.70
2019-05-19T17:44:10.714Z,24.70
2019-05-19T17:46:41.752Z,24.55
2019-05-19T17:49:12.547Z,24.41
2019-05-19T17:51:43.933Z,24.37
2019-05-19T17:54:14.459Z,24.27
2019-05-19T17:56:47.159Z,24.27
2019-05-19T17:59:17.875Z,24.18
2019-05-19T18:01:49.112Z,24.07
2019-05-19T18:04:19.896Z,24.06
2019-05-19T18:06:50.796Z,23.87
2019-05-19T18:09:22.028Z,23.87
2019-05-19T18:11:52.897Z,23.80
2019-05-19T18:14:23.740Z,23.73
2019-05-19T18:16:55.006Z,23.69
2019-05-19T18:19:25.880Z,23.68
2019-05-19T18:21:56.921Z,23.52
2019-05-19T18:24:28.578Z,23.44
2019-05-19T18:26:59.109Z,23.45
2019-05-19T18:29:31.668Z,23.49
2019-05-19T18:32:02.287Z,23.45
2019-05-19T18:34:33.656Z,23.43
2019-05-19T18:37:04.593Z,23.37
2019-05-19T18:39:35.629Z,23.25
2019-05-19T18:42:06.469Z,23.24
2019-05-19T18:44:39.433Z,23.20
2019-05-19T18:47:10.186Z,23.17
2019-05-19T18:49:41.338Z,23.23
2019-05-19T18:52:12.285Z,23.19
2019-05-19T18:54:43.351Z,23.15
2019-05-19T18:57:14.548Z,23.00
2019-05-19T18:59:47.736Z,22.84
2019-05-19T19:02:19.229Z,22.79
2019-05-19T19:04:49.613Z,22.71
2019-05-19T19:07:22.091Z,22.55
2019-05-19T19:09:53.331Z,22.27
2019-05-19T19:12:24.376Z,22.24
2019-05-19T19:14:58.911Z,22.28
2019-05-19T19:17:29.627Z,22.25
2019-05-19T19:20:00.673Z,22.15
2019-05-19T19:22:31.707Z,22.12
2019-05-19T19:25:03.492Z,22.09
2019-05-19T19:27:34.910Z,22.07
2019-05-19T19:30:09.208Z,22.02
2019-05-19T19:32:39.079Z,22.03
2019-05-19T19:35:09.873Z,21.97
2019-05-19T19:37:40.917Z,22.01
2019-05-19T19:40:12.321Z,21.96
2019-05-19T19:42:42.994Z,21.90
2019-05-19T19:45:14.137Z,21.84
2019-05-19T19:47:44.666Z,21.76
2019-05-19T19:50:15.642Z,21.71
2019-05-19T19:52:46.851Z,21.67
2019-05-19T19:55:17.902Z,21.55
2019-05-19T19:57:48.835Z,21.47
2019-05-19T20:00:37.696Z,21.43
2019-05-19T20:03:09.255Z,21.34
2019-05-19T20:05:40.274Z,21.30
2019-05-19T20:08:10.903Z,21.24
2019-05-19T20:10:41.699Z,21.19
2019-05-19T20:13:14.430Z,21.14
2019-05-19T20:15:45.136Z,21.03
2019-05-19T20:18:16.084Z,20.95
2019-05-19T20:20:47.042Z,20.86
2019-05-19T20:23:18.063Z,20.76
2019-05-19T20:25:49.211Z,20.67
2019-05-19T20:28:20.023Z,20.59
2019-05-19T20:30:51.080Z,20.55
2019-05-19T20:33:21.608Z,20.48
2019-05-19T20:35:52.647Z,20.39
2019-05-19T20:38:23.601Z,20.38
2019-05-19T20:40:54.978Z,20.40
2019-05-19T20:43:28.839Z,20.26
2019-05-19T20:45:59.780Z,20.23
2019-05-19T20:48:32.773Z,20.28
2019-05-19T20:51:03.393Z,20.21
2019-05-19T20:53:34.538Z,20.19
2019-05-19T20:56:05.365Z,20.07
2019-05-19T20:58:36.306Z,19.97
2019-05-19T21:01:07.342Z,20.00
2019-05-19T21:03:38.902Z,19.95
2019-05-19T21:06:09.537Z,19.88
2019-05-19T21:08:40.468Z,19.95
2019-05-19T21:11:11.305Z,19.89
2019-05-19T21:13:42.448Z,19.83
2019-05-19T21:16:13.385Z,19.81
2019-05-19T21:18:44.012Z,19.79
2019-05-19T21:21:15.051Z,19.71
2019-05-19T21:23:45.993Z,19.64
2019-05-19T21:26:16.862Z,19.68
2019-05-19T21:28:47.860Z,19.56
2019-05-19T21:31:18.406Z,19.56
2019-05-19T21:33:49.566Z,19.52
2019-05-19T21:36:20.370Z,19.52
2019-05-19T21:38:51.320Z,19.39
2019-05-19T21:41:23.880Z,19.36
2019-05-19T21:43:54.611Z,19.37
2019-05-19T21:46:25.406Z,19.37
2019-05-19T21:48:58.027Z,19.35
2019-05-19T21:51:30.494Z,19.24
2019-05-19T21:54:01.279Z,19.24
2019-05-19T21:56:33.599Z,19.22
2019-05-19T21:59:04.454Z,19.21
2019-05-19T22:01:35.386Z,19.19
2019-05-19T22:04:06.308Z,19.08
2019-05-19T22:06:40.345Z,18.99
2019-05-19T22:09:11.464Z,18.94
2019-05-19T22:11:42.294Z,18.92
2019-05-19T22:14:13.569Z,18.84
2019-05-19T22:16:44.991Z,18.74
2019-05-19T22:19:16.235Z,18.75
2019-05-19T22:21:47.086Z,18.63
2019-05-19T22:24:18.208Z,18.60
2019-05-19T22:26:50.542Z,18.51
2019-05-19T22:29:21.446Z,18.42
2019-05-19T22:31:52.252Z,18.37
2019-05-19T22:34:23.188Z,18.36
2019-05-19T22:36:55.863Z,18.37
2019-05-19T22:39:26.494Z,18.25
2019-05-19T22:41:57.345Z,18.20
2019-05-19T22:44:29.854Z,18.24
2019-05-19T22:47:01.051Z,18.30
2019-05-19T22:49:31.988Z,18.33
2019-05-19T22:52:02.825Z,18.32
2019-05-19T22:54:34.055Z,18.23
2019-05-19T22:57:05.102Z,18.13
2019-05-19T22:59:36.042Z,18.09
2019-05-19T23:02:09.286Z,18.11
2019-05-19T23:04:39.248Z,18.17
2019-05-19T23:07:09.946Z,18.11
2019-05-19T23:09:40.818Z,18.14
2019-05-19T23:12:11.545Z,18.10
2019-05-19T23:14:42.493Z,18.05
2019-05-19T23:17:13.218Z,18.01
2019-05-19T23:19:44.071Z,17.97
2019-05-19T23:22:14.744Z,17.99
2019-05-19T23:24:45.644Z,17.98
2019-05-19T23:27:19.124Z,18.02
2019-05-19T23:29:49.861Z,17.99
2019-05-19T23:32:20.582Z,17.87
2019-05-19T23:34:51.724Z,17.81
2019-05-19T23:37:22.419Z,17.71
2019-05-19T23:39:54.326Z,17.65
2019-05-19T23:42:26.459Z,17.65
2019-05-19T23:44:57.082Z,17.61
2019-05-19T23:47:29.693Z,17.60
2019-05-19T23:50:00.843Z,17.52
2019-05-19T23:52:31.969Z,17.55
2019-05-19T23:55:02.702Z,17.46
2019-05-19T23:57:33.451Z,17.48
